createdAt,value
2018-04-13T00:00:13.446Z,50.93
2018-04-13T00:02:41.738Z,47.63
2018-04-13T00:05:10.035Z,51.83
2018-04-13T00:07:38.771Z,56.20
2018-04-13T00:10:07.179Z,51.00
2018-04-13T00:12:35.473Z,56.70
2018-04-13T00:15:04.163Z,52.33
2018-04-13T00:17:32.860Z,54.27
2018-04-13T00:20:01.577Z,58.40
2018-04-13T00:22:29.933Z,58.97
2018-04-13T00:24:58.221Z,53.53
2018-04-13T00:27:26.541Z,53.27
2018-04-13T00:29:54.869Z,53.10
2018-04-13T00:32:23.241Z,54.20
2018-04-13T00:34:51.538Z,56.97
2018-04-13T00:37:19.856Z,51.10
2018-04-13T00:39:48.158Z,52.57
2018-04-13T00:42:16.501Z,55.07
2018-04-13T00:44:44.825Z,54.90
2018-04-13T00:47:13.173Z,61.30
2018-04-13T00:49:41.582Z,52.50
2018-04-13T00:52:09.982Z,55.93
2018-04-13T00:54:38.277Z,53.33
2018-04-13T00:57:06.596Z,52.70
2018-04-13T00:59:35.327Z,50.63
2018-04-13T01:02:03.625Z,49.97
2018-04-13T01:04:31.922Z,56.33
2018-04-13T01:07:00.254Z,57.77
2018-04-13T01:09:28.547Z,52.60
2018-04-13T01:11:56.861Z,51.53
2018-04-13T01:14:25.218Z,54.00
2018-04-13T01:16:53.539Z,52.63
2018-04-13T01:19:21.840Z,52.53
2018-04-13T01:21:50.169Z,50.47
2018-04-13T01:24:18.447Z,51.70
2018-04-13T01:26:47.131Z,52.83
2018-04-13T01:29:15.825Z,51.37
2018-04-13T01:31:44.503Z,52.50
2018-04-13T01:34:13.211Z,49.67
2018-04-13T01:36:41.504Z,50.80
2018-04-13T01:39:09.805Z,51.03
2018-04-13T01:41:38.125Z,55.07
2018-04-13T01:44:06.814Z,51.70
2018-04-13T01:46:35.498Z,58.47
2018-04-13T01:49:04.219Z,52.97
2018-04-13T01:51:32.525Z,53.07
2018-04-13T01:54:00.855Z,48.03
2018-04-13T01:56:29.154Z,47.40
2018-04-13T01:58:57.443Z,57.50
2018-04-13T02:01:25.749Z,48.70
2018-04-13T02:03:54.046Z,46.47
2018-04-13T02:06:22.775Z,49.93
2018-04-13T02:08:51.112Z,46.30
2018-04-13T02:11:19.435Z,45.80
2018-04-13T02:13:47.747Z,44.60
2018-04-13T02:16:16.049Z,46.07
2018-04-13T02:18:44.357Z,46.73
2018-04-13T02:21:12.684Z,53.50
2018-04-13T02:23:41.066Z,48.70
2018-04-13T02:26:09.370Z,55.03
2018-04-13T02:28:37.679Z,52.60
2018-04-13T02:31:06.090Z,49.03
2018-04-13T02:33:34.378Z,50.80
2018-04-13T02:36:03.066Z,48.17
2018-04-13T02:38:31.802Z,49.67
2018-04-13T02:41:00.120Z,49.97
2018-04-13T02:43:28.427Z,49.60
2018-04-13T02:45:56.750Z,51.43
2018-04-13T02:48:25.056Z,48.67
2018-04-13T02:50:53.767Z,50.80
2018-04-13T02:53:22.106Z,47.60
2018-04-13T02:55:50.405Z,48.33
2018-04-13T02:58:19.137Z,45.53
2018-04-13T03:00:47.437Z,49.70
2018-04-13T03:03:16.219Z,46.67
2018-04-13T03:05:45.058Z,55.87
2018-04-13T03:08:14.650Z,52.53
2018-04-13T03:10:43.335Z,50.70
2018-04-13T03:13:12.940Z,57.53
2018-04-13T03:15:41.669Z,49.13
2018-04-13T03:18:09.955Z,52.67
2018-04-13T03:20:38.331Z,49.53
2018-04-13T03:23:06.959Z,53.67
2018-04-13T03:25:35.431Z,52.47
2018-04-13T03:28:04.146Z,50.17
2018-04-13T03:30:32.830Z,50.60
2018-04-13T03:33:01.529Z,51.57
2018-04-13T03:35:29.877Z,58.50
2018-04-13T03:37:58.568Z,52.77
2018-04-13T03:40:27.252Z,50.77
2018-04-13T03:42:55.934Z,56.23
2018-04-13T03:45:24.621Z,59.27
2018-04-13T03:47:53.332Z,56.63
2018-04-13T03:50:21.650Z,51.87
2018-04-13T03:52:49.940Z,52.97
2018-04-13T03:55:18.262Z,54.83
2018-04-13T03:57:46.561Z,53.33
2018-04-13T04:00:14.959Z,51.77
2018-04-13T04:02:43.278Z,46.33
2018-04-13T04:05:11.980Z,50.63
2018-04-13T04:07:40.275Z,49.07
2018-04-13T04:10:08.669Z,48.30
2018-04-13T04:12:36.991Z,48.27
2018-04-13T04:15:05.694Z,48.40
2018-04-13T04:17:34.021Z,47.30
2018-04-13T04:20:14.276Z,48.63
2018-04-13T04:22:55.415Z,47.50
2018-04-13T04:25:35.679Z,50.67
2018-04-13T04:28:04.088Z,50.97
2018-04-13T04:30:32.690Z,53.13
2018-04-13T04:33:01.226Z,51.83
2018-04-13T04:35:29.564Z,49.73
2018-04-13T04:37:58.282Z,51.20
2018-04-13T04:40:26.571Z,49.60
2018-04-13T04:42:54.918Z,52.20
2018-04-13T04:45:23.601Z,48.17
2018-04-13T04:47:52.728Z,49.23
2018-04-13T04:50:21.078Z,59.40
2018-04-13T04:52:49.765Z,50.67
2018-04-13T04:55:18.055Z,50.53
2018-04-13T04:57:46.378Z,54.47
2018-04-13T05:00:14.678Z,51.67
2018-04-13T05:02:43.661Z,47.53
2018-04-13T05:05:12.392Z,57.10
2018-04-13T05:07:40.957Z,52.37
2018-04-13T05:10:09.267Z,53.57
2018-04-13T05:12:37.789Z,50.17
2018-04-13T05:15:06.092Z,50.83
2018-04-13T05:17:34.434Z,50.23
2018-04-13T05:20:02.732Z,50.03
2018-04-13T05:22:31.091Z,51.87
2018-04-13T05:24:59.390Z,51.50
2018-04-13T05:27:27.767Z,50.57
2018-04-13T05:29:57.141Z,53.07
2018-04-13T05:32:25.466Z,48.27
2018-04-13T05:34:53.750Z,50.03
2018-04-13T05:37:22.062Z,49.20
2018-04-13T05:39:50.447Z,58.30
2018-04-13T05:42:18.758Z,46.23
2018-04-13T05:44:47.051Z,46.87
2018-04-13T05:47:15.402Z,51.37
2018-04-13T05:49:44.238Z,46.57
2018-04-13T05:52:12.562Z,46.90
2018-04-13T05:54:40.885Z,47.70
2018-04-13T05:57:09.217Z,48.73
2018-04-13T05:59:37.545Z,44.60
2018-04-13T06:02:05.880Z,46.93
2018-04-13T06:04:34.594Z,47.90
2018-04-13T06:07:02.914Z,46.13
2018-04-13T06:09:31.224Z,41.00
2018-04-13T06:11:59.983Z,43.37
2018-04-13T06:14:28.766Z,41.00
2018-04-13T06:16:57.059Z,49.43
2018-04-13T06:19:25.424Z,45.30
2018-04-13T06:21:53.723Z,43.10
2018-04-13T06:24:22.606Z,43.47
2018-04-13T06:26:50.912Z,39.57
2018-04-13T06:29:19.622Z,41.90
2018-04-13T06:31:47.934Z,43.47
2018-04-13T06:34:16.279Z,47.80
2018-04-13T06:36:44.830Z,43.47
2018-04-13T06:39:13.125Z,41.23
2018-04-13T06:41:41.462Z,45.93
2018-04-13T06:44:09.765Z,49.57
2018-04-13T06:46:38.476Z,41.80
2018-04-13T06:49:06.890Z,47.00
2018-04-13T06:51:35.489Z,43.73
2018-04-13T06:54:03.786Z,56.30
2018-04-13T06:56:32.471Z,43.80
2018-04-13T06:59:01.157Z,48.03
2018-04-13T07:01:29.484Z,44.23
2018-04-13T07:03:57.790Z,46.67
2018-04-13T07:06:26.081Z,46.13
2018-04-13T07:08:54.797Z,44.03
2018-04-13T07:11:23.111Z,48.73
2018-04-13T07:13:51.490Z,43.87
2018-04-13T07:16:20.236Z,39.73
2018-04-13T07:18:48.772Z,45.00
2018-04-13T07:21:17.705Z,42.73
2018-04-13T07:23:46.043Z,35.43
2018-04-13T07:26:14.405Z,42.30
2018-04-13T07:28:42.701Z,44.90
2018-04-13T07:31:10.993Z,46.97
2018-04-13T07:33:39.990Z,45.20
2018-04-13T07:36:08.091Z,45.00
2018-04-13T07:38:36.508Z,41.50
2018-04-13T07:41:04.810Z,47.73
2018-04-13T07:43:33.757Z,45.07
2018-04-13T07:46:01.536Z,45.00
2018-04-13T07:48:29.883Z,40.33
2018-04-13T07:50:58.167Z,46.23
2018-04-13T07:53:27.490Z,42.50
2018-04-13T07:55:56.689Z,53.63
2018-04-13T07:58:25.592Z,43.33
2018-04-13T08:00:54.029Z,46.83
2018-04-13T08:03:22.131Z,48.30
2018-04-13T08:05:50.429Z,50.57
2018-04-13T08:08:18.746Z,47.57
2018-04-13T08:10:47.043Z,54.20
2018-04-13T08:13:15.670Z,48.93
2018-04-13T08:15:43.976Z,49.97
2018-04-13T08:18:12.266Z,56.70
2018-04-13T08:20:40.906Z,55.97
2018-04-13T08:23:09.230Z,57.77
2018-04-13T08:25:37.593Z,50.40
2018-04-13T08:28:05.941Z,56.13
2018-04-13T08:30:34.316Z,47.20
2018-04-13T08:33:02.599Z,57.67
2018-04-13T08:35:30.930Z,52.33
2018-04-13T08:37:59.344Z,47.63
2018-04-13T08:40:27.627Z,59.50
2018-04-13T08:42:55.955Z,51.83
2018-04-13T08:45:24.383Z,49.03
2018-04-13T08:47:52.677Z,46.83
2018-04-13T08:50:21.375Z,42.60
2018-04-13T08:52:49.678Z,47.87
2018-04-13T08:55:17.969Z,49.37
2018-04-13T08:57:46.697Z,38.03
2018-04-13T09:00:14.924Z,43.20
2018-04-13T09:02:43.421Z,45.30
2018-04-13T09:05:11.750Z,44.00
2018-04-13T09:07:40.055Z,45.33
2018-04-13T09:10:08.333Z,44.47
2018-04-13T09:12:36.729Z,40.97
2018-04-13T09:15:05.018Z,43.27
2018-04-13T09:17:33.314Z,43.10
2018-04-13T09:20:02.049Z,37.70
2018-04-13T09:22:30.665Z,33.97
2018-04-13T09:24:58.982Z,36.53
2018-04-13T09:27:27.572Z,38.07
2018-04-13T09:29:55.865Z,34.43
2018-04-13T09:32:24.185Z,34.20
2018-04-13T09:34:52.499Z,35.83
2018-04-13T09:37:21.549Z,42.53
2018-04-13T09:39:50.339Z,35.70
2018-04-13T09:42:19.082Z,37.10
2018-04-13T09:44:47.447Z,45.47
2018-04-13T09:47:15.788Z,39.10
2018-04-13T09:49:44.086Z,37.70
2018-04-13T09:52:12.806Z,35.57
2018-04-13T09:54:41.170Z,36.10
2018-04-13T09:57:09.490Z,38.57
2018-04-13T09:59:37.769Z,37.00
2018-04-13T10:02:06.099Z,37.13
2018-04-13T10:04:39.953Z,36.10
2018-04-13T10:07:08.271Z,42.23
2018-04-13T10:09:36.957Z,41.27
2018-04-13T10:12:05.509Z,47.40
2018-04-13T10:14:33.868Z,42.47
2018-04-13T10:17:02.192Z,44.10
2018-04-13T10:19:30.493Z,41.33
2018-04-13T10:21:58.830Z,47.73
2018-04-13T10:24:27.128Z,46.93
2018-04-13T10:26:55.502Z,49.47
2018-04-13T10:29:23.833Z,42.80
2018-04-13T10:31:52.126Z,46.10
2018-04-13T10:34:20.436Z,53.43
2018-04-13T10:36:49.086Z,42.80
2018-04-13T10:39:17.421Z,49.07
2018-04-13T10:41:45.729Z,53.67
2018-04-13T10:44:14.068Z,52.13
2018-04-13T10:46:42.352Z,48.80
2018-04-13T10:49:10.690Z,46.57
2018-04-13T10:51:39.067Z,47.40
2018-04-13T10:54:08.036Z,45.30
2018-04-13T10:56:36.932Z,46.13
2018-04-13T10:59:05.978Z,52.23
2018-04-13T11:01:34.301Z,50.00
2018-04-13T11:04:02.886Z,51.17
2018-04-13T11:06:31.604Z,51.00
2018-04-13T11:09:00.074Z,45.63
2018-04-13T11:11:28.430Z,41.73
2018-04-13T11:13:56.896Z,58.10
2018-04-13T11:16:25.181Z,48.67
2018-04-13T11:18:54.057Z,44.00
2018-04-13T11:21:22.343Z,44.83
2018-04-13T11:23:51.124Z,46.00
2018-04-13T11:26:19.483Z,40.60
2018-04-13T11:28:47.798Z,39.60
2018-04-13T11:31:16.125Z,40.13
2018-04-13T11:33:44.453Z,36.10
2018-04-13T11:36:12.749Z,35.10
2018-04-13T11:38:41.056Z,32.13
2018-04-13T11:41:09.362Z,32.73
2018-04-13T11:43:37.656Z,27.13
2018-04-13T11:46:05.975Z,31.80
2018-04-13T11:48:34.274Z,37.20
2018-04-13T11:51:02.574Z,28.53
2018-04-13T11:53:30.928Z,31.47
2018-04-13T11:55:59.267Z,27.10
2018-04-13T11:58:27.606Z,36.87
2018-04-13T12:00:56.175Z,25.87
2018-04-13T12:03:24.566Z,24.60
2018-04-13T12:05:52.852Z,28.60
2018-04-13T12:08:21.187Z,32.47
2018-04-13T12:10:49.469Z,23.87
2018-04-13T12:13:17.780Z,24.70
2018-04-13T12:15:46.138Z,28.67
2018-04-13T12:18:14.530Z,27.60
2018-04-13T12:20:42.907Z,23.87
2018-04-13T12:23:11.201Z,23.37
2018-04-13T12:25:39.525Z,23.40
2018-04-13T12:28:08.232Z,18.83
2018-04-13T12:30:36.539Z,24.70
2018-04-13T12:33:04.895Z,21.87
2018-04-13T12:35:33.285Z,24.83
2018-04-13T12:38:01.622Z,20.10
2018-04-13T12:40:29.916Z,21.03
2018-04-13T12:42:58.260Z,21.77
2018-04-13T12:45:26.586Z,18.93
2018-04-13T12:47:54.918Z,21.90
2018-04-13T12:50:23.606Z,21.33
2018-04-13T12:52:51.915Z,22.53
2018-04-13T12:55:20.348Z,18.77
2018-04-13T12:57:48.749Z,22.53
2018-04-13T13:00:17.083Z,19.87
2018-04-13T13:02:45.550Z,24.93
2018-04-13T13:05:13.968Z,27.10
2018-04-13T13:07:42.722Z,17.40
2018-04-13T13:10:12.971Z,22.40
2018-04-13T13:12:41.499Z,22.40
2018-04-13T13:15:10.093Z,15.67
2018-04-13T13:17:38.408Z,14.60
2018-04-13T13:20:06.757Z,17.40
2018-04-13T13:22:35.103Z,16.43
2018-04-13T13:25:03.544Z,14.30
2018-04-13T13:27:32.674Z,16.83
2018-04-13T13:30:01.303Z,14.70
2018-04-13T13:32:30.037Z,14.73
2018-04-13T13:35:01.104Z,17.90
2018-04-13T13:37:29.641Z,21.87
2018-04-13T13:39:59.795Z,20.10
2018-04-13T13:42:28.107Z,19.40
2018-04-13T13:44:56.486Z,17.20
2018-04-13T13:47:24.800Z,13.17
2018-04-13T13:49:53.513Z,16.50
2018-04-13T13:52:22.250Z,19.23
2018-04-13T13:54:51.061Z,13.73
2018-04-13T13:57:19.461Z,20.83
2018-04-13T13:59:47.762Z,15.63
2018-04-13T14:02:16.050Z,20.00
2018-04-13T14:04:44.402Z,16.80
2018-04-13T14:07:12.700Z,17.73
2018-04-13T14:09:41.001Z,19.60
2018-04-13T14:12:09.349Z,15.33
2018-04-13T14:14:37.639Z,16.90
2018-04-13T14:17:05.920Z,14.60
2018-04-13T14:19:35.113Z,17.60
2018-04-13T14:22:03.439Z,17.83
2018-04-13T14:24:31.753Z,13.40
2018-04-13T14:27:00.080Z,12.77
2018-04-13T14:29:28.981Z,14.13
2018-04-13T14:31:57.679Z,15.90
2018-04-13T14:34:26.035Z,12.70
2018-04-13T14:36:55.014Z,14.00
2018-04-13T14:39:24.071Z,21.50
2018-04-13T14:41:52.418Z,12.17
2018-04-13T14:44:20.711Z,16.50
2018-04-13T14:46:48.990Z,13.23
2018-04-13T14:49:17.317Z,9.50
2018-04-13T14:51:47.898Z,18.77
2018-04-13T14:54:16.206Z,11.60
2018-04-13T14:56:44.567Z,11.20
2018-04-13T14:59:12.862Z,15.33
2018-04-13T15:01:41.579Z,14.40
2018-04-13T15:04:09.902Z,11.30
2018-04-13T15:06:38.293Z,16.37
2018-04-13T15:09:06.783Z,17.17
2018-04-13T15:11:35.514Z,13.90
2018-04-13T15:14:03.838Z,13.30
2018-04-13T15:16:32.142Z,11.40
2018-04-13T15:19:00.467Z,13.13
2018-04-13T15:21:28.765Z,9.67
2018-04-13T15:23:57.061Z,9.90
2018-04-13T15:26:25.683Z,18.80
2018-04-13T15:28:53.985Z,12.37
2018-04-13T15:31:22.307Z,15.70
2018-04-13T15:33:50.606Z,15.50
2018-04-13T15:36:19.328Z,13.33
2018-04-13T15:38:47.728Z,15.03
2018-04-13T15:41:16.038Z,12.93
2018-04-13T15:43:44.605Z,23.93
2018-04-13T15:46:13.189Z,14.43
2018-04-13T15:48:42.648Z,12.10
2018-04-13T15:51:11.184Z,14.37
2018-04-13T15:53:39.525Z,22.50
2018-04-13T15:56:07.820Z,14.23
2018-04-13T15:58:36.150Z,8.17
2018-04-13T16:01:04.473Z,12.50
2018-04-13T16:03:32.758Z,5.10
2018-04-13T16:06:01.082Z,10.27
2018-04-13T16:08:29.400Z,8.93
2018-04-13T16:10:58.141Z,5.97
2018-04-13T16:13:26.567Z,9.07
2018-04-13T16:15:54.931Z,6.20
2018-04-13T16:18:23.848Z,11.57
2018-04-13T16:20:52.222Z,8.30
2018-04-13T16:23:20.926Z,9.07
2018-04-13T16:25:50.123Z,10.10
2018-04-13T16:28:18.794Z,8.67
2018-04-13T16:30:47.093Z,12.00
2018-04-13T16:33:15.812Z,10.67
2018-04-13T16:35:44.221Z,8.50
2018-04-13T16:38:12.499Z,8.00
2018-04-13T16:40:40.803Z,7.77
2018-04-13T16:43:09.106Z,8.93
2018-04-13T16:45:37.853Z,6.83
2018-04-13T16:48:06.134Z,9.17
2018-04-13T16:50:34.499Z,8.10
2018-04-13T16:53:02.791Z,8.43
2018-04-13T16:55:31.512Z,9.13
2018-04-13T16:57:59.888Z,7.43
2018-04-13T17:00:28.174Z,9.43
2018-04-13T17:02:56.812Z,12.27
2018-04-13T17:05:25.169Z,10.33
2018-04-13T17:07:53.488Z,9.53
2018-04-13T17:10:21.944Z,10.43
2018-04-13T17:12:51.266Z,10.10
2018-04-13T17:15:20.014Z,15.00
2018-04-13T17:17:48.352Z,9.80
2018-04-13T17:20:17.095Z,12.27
2018-04-13T17:22:45.386Z,8.73
2018-04-13T17:25:14.677Z,11.80
2018-04-13T17:27:43.169Z,12.20
2018-04-13T17:30:11.855Z,15.63
2018-04-13T17:32:40.214Z,9.43
2018-04-13T17:35:08.545Z,11.77
2018-04-13T17:37:36.889Z,18.20
2018-04-13T17:40:05.714Z,13.90
2018-04-13T17:42:34.063Z,13.13
2018-04-13T17:45:02.817Z,16.47
2018-04-13T17:47:31.597Z,14.40
2018-04-13T17:49:59.955Z,25.10
2018-04-13T17:52:28.251Z,18.37
2018-04-13T17:54:57.074Z,9.90
2018-04-13T17:57:25.864Z,10.27
2018-04-13T17:59:54.737Z,6.73
2018-04-13T18:02:23.018Z,18.43
2018-04-13T18:04:52.199Z,7.87
2018-04-13T18:07:20.578Z,12.87
2018-04-13T18:09:49.045Z,8.83
2018-04-13T18:12:17.925Z,15.43
2018-04-13T18:14:46.247Z,11.77
2018-04-13T18:17:14.606Z,8.63
2018-04-13T18:19:42.910Z,7.60
2018-04-13T18:22:11.589Z,9.17
2018-04-13T18:24:39.903Z,12.73
2018-04-13T18:27:08.228Z,10.67
2018-04-13T18:29:36.575Z,5.47
2018-04-13T18:32:04.961Z,7.47
2018-04-13T18:34:33.273Z,9.20
2018-04-13T18:37:01.560Z,7.50
2018-04-13T18:39:30.251Z,7.80
2018-04-13T18:41:59.213Z,7.63
2018-04-13T18:44:27.496Z,8.27
2018-04-13T18:46:55.921Z,4.70
2018-04-13T18:49:24.712Z,7.47
2018-04-13T18:51:53.068Z,4.97
2018-04-13T18:54:21.515Z,7.93
2018-04-13T18:56:49.813Z,5.43
2018-04-13T18:59:18.568Z,12.33
2018-04-13T19:01:47.192Z,9.83
2018-04-13T19:04:15.973Z,6.97
2018-04-13T19:06:44.270Z,5.47
2018-04-13T19:09:12.747Z,7.63
2018-04-13T19:11:41.415Z,9.27
2018-04-13T19:14:09.686Z,7.07
2018-04-13T19:16:38.159Z,9.53
2018-04-13T19:19:06.545Z,6.93
2018-04-13T19:21:35.432Z,9.70
2018-04-13T19:24:04.517Z,8.50
2018-04-13T19:26:33.056Z,6.83
2018-04-13T19:29:03.100Z,8.60
2018-04-13T19:31:31.452Z,9.80
2018-04-13T19:33:59.738Z,9.30
2018-04-13T19:36:28.095Z,6.47
2018-04-13T19:38:56.497Z,6.47
2018-04-13T19:41:25.573Z,6.37
2018-04-13T19:43:53.934Z,7.47
2018-04-13T19:46:22.310Z,7.53
2018-04-13T19:48:50.813Z,7.20
2018-04-13T19:51:19.176Z,6.77
2018-04-13T19:53:47.550Z,9.30
2018-04-13T19:56:16.112Z,7.87
2018-04-13T19:58:44.786Z,6.63
2018-04-13T20:01:13.071Z,8.47
2018-04-13T20:03:41.576Z,9.40
2018-04-13T20:06:09.972Z,7.33
2018-04-13T20:08:41.449Z,10.77
2018-04-13T20:11:09.730Z,5.83
2018-04-13T20:13:38.266Z,6.40
2018-04-13T20:16:06.558Z,6.87
2018-04-13T20:18:34.853Z,13.47
2018-04-13T20:21:03.211Z,9.40
2018-04-13T20:23:31.518Z,6.23
2018-04-13T20:25:59.981Z,7.20
2018-04-13T20:28:28.381Z,9.50
2018-04-13T20:30:56.713Z,11.60
2018-04-13T20:33:25.025Z,12.17
2018-04-13T20:35:53.333Z,6.80
2018-04-13T20:38:22.027Z,10.03
2018-04-13T20:40:50.297Z,7.97
2018-04-13T20:43:18.592Z,7.97
2018-04-13T20:45:47.486Z,7.43
2018-04-13T20:48:15.793Z,6.60
2018-04-13T20:50:44.230Z,8.67
2018-04-13T20:53:12.621Z,8.80
2018-04-13T20:55:41.386Z,8.23
2018-04-13T20:58:09.701Z,8.20
2018-04-13T21:00:37.982Z,6.00
2018-04-13T21:03:06.719Z,7.60
2018-04-13T21:05:35.168Z,10.80
2018-04-13T21:08:03.767Z,11.13
2018-04-13T21:10:32.196Z,9.30
2018-04-13T21:13:00.933Z,9.90
2018-04-13T21:15:29.205Z,8.60
2018-04-13T21:17:57.482Z,14.93
2018-04-13T21:20:25.794Z,8.30
2018-04-13T21:22:54.726Z,9.33
2018-04-13T21:25:23.042Z,13.67
2018-04-13T21:27:51.356Z,8.60
2018-04-13T21:30:19.698Z,10.00
2018-04-13T21:32:49.397Z,9.70
2018-04-13T21:35:17.982Z,9.57
2018-04-13T21:37:46.283Z,15.40
2018-04-13T21:40:14.585Z,16.20
2018-04-13T21:42:42.911Z,12.47
2018-04-13T21:45:11.216Z,10.17
2018-04-13T21:47:39.790Z,10.60
2018-04-13T21:50:08.128Z,10.53
2018-04-13T21:52:36.417Z,9.17
2018-04-13T21:55:04.715Z,9.43
2018-04-13T21:57:33.026Z,10.70
2018-04-13T22:00:01.457Z,9.33
2018-04-13T22:02:30.964Z,7.40
2018-04-13T22:04:59.467Z,8.30
2018-04-13T22:07:27.759Z,12.23
2018-04-13T22:09:56.061Z,10.87
2018-04-13T22:12:36.577Z,6.57
2018-04-13T22:15:04.878Z,7.80
2018-04-13T22:17:33.214Z,10.30
2018-04-13T22:20:01.591Z,10.03
2018-04-13T22:22:29.865Z,6.47
2018-04-13T22:24:58.173Z,5.77
2018-04-13T22:27:26.464Z,4.80
2018-04-13T22:29:54.772Z,5.80
2018-04-13T22:32:23.350Z,7.33
2018-04-13T22:34:51.878Z,5.17
2018-04-13T22:37:20.158Z,4.47
2018-04-13T22:39:48.516Z,3.53
2018-04-13T22:42:16.807Z,4.37
2018-04-13T22:44:45.135Z,3.53
2018-04-13T22:47:13.430Z,3.73
2018-04-13T22:49:41.927Z,4.07
2018-04-13T22:52:10.350Z,3.10
2018-04-13T22:54:39.020Z,5.97
2018-04-13T22:57:07.447Z,3.07
2018-04-13T22:59:35.821Z,3.03
2018-04-13T23:02:04.093Z,2.83
2018-04-13T23:04:32.413Z,2.40
2018-04-13T23:07:00.733Z,3.30
2018-04-13T23:09:29.016Z,3.30
2018-04-13T23:11:57.296Z,2.50
2018-04-13T23:14:25.933Z,3.93
2018-04-13T23:16:54.214Z,2.40
2018-04-13T23:19:22.796Z,3.50
2018-04-13T23:21:51.126Z,2.00
2018-04-13T23:24:19.399Z,5.47
2018-04-13T23:26:47.674Z,5.83
2018-04-13T23:29:15.997Z,5.67
2018-04-13T23:31:44.278Z,2.20
2018-04-13T23:34:12.559Z,2.03
2018-04-13T23:36:40.865Z,2.67
2018-04-13T23:39:09.144Z,1.93
2018-04-13T23:41:37.413Z,2.47
2018-04-13T23:44:06.369Z,1.93
2018-04-13T23:46:34.646Z,2.53
2018-04-13T23:49:02.941Z,2.50
2018-04-13T23:51:31.246Z,1.80
2018-04-13T23:53:59.522Z,2.03
2018-04-13T23:56:27.802Z,3.40
2018-04-13T23:58:56.092Z,3.20
